sensor_id;sensor_type;location;lat;lon;timestamp;P1;durP1;ratioP1;P2;durP2;ratioP2
4096;SDS011;2062;50.694;7.246;2024-02-14T00:00:02;4.38;;;1.27;;
4096;SDS011;2062;50.694;7.246;2024-02-14T00:02:29;5.07;;;1.40;;
4096;SDS011;2062;50.694;7.246;2024-02-14T00:04:56;5.95;;;1.30;;
4096;SDS011;2062;50.694;7.246;2024-02-14T00:07:23;5.15;;;1.60;;
4096;SDS011;2062;50.694;7.246;2024-02-14T00:09:53;5.97;;;1.30;;
4096;SDS011;2062;50.694;7.246;2024-02-14T00:12:20;4.53;;;1.13;;
4096;SDS011;2062;50.694;7.246;2024-02-14T00:14:48;4.80;;;1.37;;
4096;SDS011;2062;50.694;7.246;2024-02-14T00:17:15;5.53;;;1.30;;
4096;SDS011;2062;50.694;7.246;2024-02-14T00:19:41;3.95;;;1.00;;
4096;SDS011;2062;50.694;7.246;2024-02-14T00:22:08;3.88;;;1.20;;
4096;SDS011;2062;50.694;7.246;2024-02-14T00:24:35;5.70;;;1.20;;
4096;SDS011;2062;50.694;7.246;2024-02-14T00:27:03;4.90;;;1.23;;
4096;SDS011;2062;50.694;7.246;2024-02-14T00:29:31;4.63;;;1.30;;
4096;SDS011;2062;50.694;7.246;2024-02-14T00:31:59;7.13;;;1.27;;
4096;SDS011;2062;50.694;7.246;2024-02-14T00:34:26;3.78;;;1.15;;
4096;SDS011;2062;50.694;7.246;2024-02-14T00:36:52;3.88;;;1.13;;
4096;SDS011;2062;50.694;7.246;2024-02-14T00:39:19;5.33;;;1.10;;
4096;SDS011;2062;50.694;7.246;2024-02-14T00:41:46;5.00;;;1.00;;
4096;SDS011;2062;50.694;7.246;2024-02-14T00:44:15;5.03;;;1.00;;
4096;SDS011;2062;50.694;7.246;2024-02-14T00:46:43;4.28;;;1.00;;
4096;SDS011;2062;50.694;7.246;2024-02-14T00:49:10;4.80;;;1.13;;
4096;SDS011;2062;50.694;7.246;2024-02-14T00:51:38;5.63;;;1.30;;
4096;SDS011;2062;50.694;7.246;2024-02-14T00:54:05;4.65;;;1.20;;
4096;SDS011;2062;50.694;7.246;2024-02-14T00:56:32;3.70;;;1.05;;
4096;SDS011;2062;50.694;7.246;2024-02-14T00:58:59;4.40;;;1.00;;
4096;SDS011;2062;50.694;7.246;2024-02-14T01:01:27;4.28;;;0.95;;
4096;SDS011;2062;50.694;7.246;2024-02-14T01:03:53;5.60;;;1.10;;
4096;SDS011;2062;50.694;7.246;2024-02-14T01:06:21;3.75;;;0.90;;
4096;SDS011;2062;50.694;7.246;2024-02-14T01:08:48;4.22;;;1.00;;
4096;SDS011;2062;50.694;7.246;2024-02-14T01:11:14;4.30;;;0.98;;
4096;SDS011;2062;50.694;7.246;2024-02-14T01:13:41;4.90;;;0.90;;
4096;SDS011;2062;50.694;7.246;2024-02-14T01:16:08;3.47;;;1.00;;
4096;SDS011;2062;50.694;7.246;2024-02-14T01:18:36;3.67;;;0.98;;
4096;SDS011;2062;50.694;7.246;2024-02-14T01:21:03;3.25;;;0.77;;
4096;SDS011;2062;50.694;7.246;2024-02-14T01:23:31;3.70;;;0.85;;
4096;SDS011;2062;50.694;7.246;2024-02-14T01:25:57;5.18;;;0.98;;
4096;SDS011;2062;50.694;7.246;2024-02-14T01:28:24;4.37;;;0.83;;
4096;SDS011;2062;50.694;7.246;2024-02-14T01:30:51;4.10;;;0.80;;
4096;SDS011;2062;50.694;7.246;2024-02-14T01:33:18;3.55;;;0.80;;
4096;SDS011;2062;50.694;7.246;2024-02-14T01:35:46;4.88;;;0.80;;
4096;SDS011;2062;50.694;7.246;2024-02-14T01:38:13;3.17;;;0.82;;
4096;SDS011;2062;50.694;7.246;2024-02-14T01:40:42;3.63;;;0.67;;
4096;SDS011;2062;50.694;7.246;2024-02-14T01:43:09;5.03;;;0.90;;
4096;SDS011;2062;50.694;7.246;2024-02-14T01:45:37;3.40;;;0.85;;
4096;SDS011;2062;50.694;7.246;2024-02-14T01:48:04;6.03;;;0.95;;
4096;SDS011;2062;50.694;7.246;2024-02-14T01:50:32;4.68;;;0.98;;
4096;SDS011;2062;50.694;7.246;2024-02-14T01:53:01;3.13;;;0.80;;
4096;SDS011;2062;50.694;7.246;2024-02-14T01:55:28;3.63;;;0.90;;
4096;SDS011;2062;50.694;7.246;2024-02-14T01:57:55;3.75;;;0.60;;
4096;SDS011;2062;50.694;7.246;2024-02-14T02:00:22;3.85;;;0.80;;
4096;SDS011;2062;50.694;7.246;2024-02-14T02:02:49;5.50;;;0.88;;
4096;SDS011;2062;50.694;7.246;2024-02-14T02:05:16;4.03;;;0.70;;
4096;SDS011;2062;50.694;7.246;2024-02-14T02:07:44;3.90;;;0.80;;
4096;SDS011;2062;50.694;7.246;2024-02-14T02:10:14;3.13;;;0.75;;
4096;SDS011;2062;50.694;7.246;2024-02-14T02:12:41;2.72;;;0.63;;
4096;SDS011;2062;50.694;7.246;2024-02-14T02:15:08;4.45;;;0.70;;
4096;SDS011;2062;50.694;7.246;2024-02-14T02:17:38;5.43;;;0.77;;
4096;SDS011;2062;50.694;7.246;2024-02-14T02:20:04;3.83;;;0.60;;
4096;SDS011;2062;50.694;7.246;2024-02-14T02:22:34;5.00;;;0.90;;
4096;SDS011;2062;50.694;7.246;2024-02-14T02:25:02;3.55;;;0.80;;
4096;SDS011;2062;50.694;7.246;2024-02-14T02:27:32;3.40;;;0.67;;
4096;SDS011;2062;50.694;7.246;2024-02-14T02:30:00;3.45;;;0.98;;
4096;SDS011;2062;50.694;7.246;2024-02-14T02:32:29;4.57;;;0.60;;
4096;SDS011;2062;50.694;7.246;2024-02-14T02:34:56;4.60;;;0.80;;
4096;SDS011;2062;50.694;7.246;2024-02-14T02:37:23;4.07;;;0.85;;
4096;SDS011;2062;50.694;7.246;2024-02-14T02:39:49;4.27;;;0.80;;
4096;SDS011;2062;50.694;7.246;2024-02-14T02:42:18;3.40;;;0.73;;
4096;SDS011;2062;50.694;7.246;2024-02-14T02:44:46;3.67;;;0.70;;
4096;SDS011;2062;50.694;7.246;2024-02-14T02:47:13;4.05;;;0.95;;
4096;SDS011;2062;50.694;7.246;2024-02-14T02:49:41;3.53;;;0.80;;
4096;SDS011;2062;50.694;7.246;2024-02-14T02:52:09;3.40;;;0.80;;
4096;SDS011;2062;50.694;7.246;2024-02-14T02:54:36;4.45;;;0.65;;
4096;SDS011;2062;50.694;7.246;2024-02-14T02:57:05;3.75;;;0.70;;
4096;SDS011;2062;50.694;7.246;2024-02-14T02:59:34;3.88;;;0.77;;
4096;SDS011;2062;50.694;7.246;2024-02-14T03:02:01;3.30;;;0.85;;
4096;SDS011;2062;50.694;7.246;2024-02-14T03:04:28;3.37;;;0.60;;
4096;SDS011;2062;50.694;7.246;2024-02-14T03:06:56;4.00;;;0.95;;
4096;SDS011;2062;50.694;7.246;2024-02-14T03:09:23;3.90;;;0.82;;
4096;SDS011;2062;50.694;7.246;2024-02-14T03:11:53;4.43;;;0.70;;
4096;SDS011;2062;50.694;7.246;2024-02-14T03:14:21;3.03;;;0.60;;
4096;SDS011;2062;50.694;7.246;2024-02-14T03:16:50;3.90;;;0.80;;
4096;SDS011;2062;50.694;7.246;2024-02-14T03:19:17;3.10;;;1.02;;
4096;SDS011;2062;50.694;7.246;2024-02-14T03:21:44;3.55;;;0.90;;
4096;SDS011;2062;50.694;7.246;2024-02-14T03:24:11;3.13;;;0.75;;
4096;SDS011;2062;50.694;7.246;2024-02-14T03:26:39;3.25;;;1.00;;
4096;SDS011;2062;50.694;7.246;2024-02-14T03:29:07;3.07;;;0.70;;
4096;SDS011;2062;50.694;7.246;2024-02-14T03:31:33;4.93;;;0.90;;
4096;SDS011;2062;50.694;7.246;2024-02-14T03:34:02;3.40;;;0.80;;
4096;SDS011;2062;50.694;7.246;2024-02-14T03:36:30;3.78;;;0.80;;
4096;SDS011;2062;50.694;7.246;2024-02-14T03:38:57;4.20;;;0.63;;
4096;SDS011;2062;50.694;7.246;2024-02-14T03:41:25;6.10;;;1.00;;
4096;SDS011;2062;50.694;7.246;2024-02-14T03:43:53;4.47;;;0.88;;
4096;SDS011;2062;50.694;7.246;2024-02-14T03:46:23;2.90;;;0.68;;
4096;SDS011;2062;50.694;7.246;2024-02-14T03:48:50;3.30;;;0.88;;
4096;SDS011;2062;50.694;7.246;2024-02-14T03:51:18;3.92;;;0.77;;
4096;SDS011;2062;50.694;7.246;2024-02-14T03:53:44;4.43;;;0.90;;
4096;SDS011;2062;50.694;7.246;2024-02-14T03:56:11;4.45;;;0.70;;
4096;SDS011;2062;50.694;7.246;2024-02-14T03:58:39;3.53;;;0.80;;
4096;SDS011;2062;50.694;7.246;2024-02-14T04:01:06;3.00;;;0.70;;
4096;SDS011;2062;50.694;7.246;2024-02-14T04:03:33;3.10;;;0.68;;
4096;SDS011;2062;50.694;7.246;2024-02-14T04:06:01;3.87;;;1.03;;
4096;SDS011;2062;50.694;7.246;2024-02-14T04:08:29;2.90;;;0.70;;
4096;SDS011;2062;50.694;7.246;2024-02-14T04:10:55;3.63;;;0.88;;
4096;SDS011;2062;50.694;7.246;2024-02-14T04:13:22;4.03;;;0.70;;
4096;SDS011;2062;50.694;7.246;2024-02-14T04:15:49;3.55;;;0.80;;
4096;SDS011;2062;50.694;7.246;2024-02-14T04:18:16;3.47;;;0.80;;
4096;SDS011;2062;50.694;7.246;2024-02-14T04:20:43;4.07;;;0.70;;
4096;SDS011;2062;50.694;7.246;2024-02-14T04:23:10;3.20;;;0.75;;
4096;SDS011;2062;50.694;7.246;2024-02-14T04:25:38;4.65;;;0.70;;
4096;SDS011;2062;50.694;7.246;2024-02-14T04:28:05;3.53;;;0.90;;
4096;SDS011;2062;50.694;7.246;2024-02-14T04:30:32;3.53;;;0.80;;
4096;SDS011;2062;50.694;7.246;2024-02-14T04:33:00;3.70;;;0.60;;
4096;SDS011;2062;50.694;7.246;2024-02-14T04:35:27;3.50;;;0.75;;
4096;SDS011;2062;50.694;7.246;2024-02-14T04:37:54;4.43;;;0.85;;
4096;SDS011;2062;50.694;7.246;2024-02-14T04:40:22;2.90;;;0.80;;
4096;SDS011;2062;50.694;7.246;2024-02-14T04:42:50;4.23;;;0.93;;
4096;SDS011;2062;50.694;7.246;2024-02-14T04:45:17;3.40;;;0.88;;
4096;SDS011;2062;50.694;7.246;2024-02-14T04:47:44;3.47;;;0.82;;
4096;SDS011;2062;50.694;7.246;2024-02-14T04:50:11;4.22;;;0.73;;
4096;SDS011;2062;50.694;7.246;2024-02-14T04:52:39;3.78;;;0.90;;
4096;SDS011;2062;50.694;7.246;2024-02-14T04:55:06;3.67;;;1.00;;
4096;SDS011;2062;50.694;7.246;2024-02-14T04:57:33;3.30;;;0.80;;
4096;SDS011;2062;50.694;7.246;2024-02-14T05:00:03;4.28;;;0.90;;
4096;SDS011;2062;50.694;7.246;2024-02-14T05:02:33;3.08;;;0.73;;
4096;SDS011;2062;50.694;7.246;2024-02-14T05:05:01;4.75;;;0.93;;
4096;SDS011;2062;50.694;7.246;2024-02-14T05:07:28;3.80;;;0.70;;
4096;SDS011;2062;50.694;7.246;2024-02-14T05:09:54;4.20;;;0.88;;
4096;SDS011;2062;50.694;7.246;2024-02-14T05:12:21;3.78;;;0.90;;
4096;SDS011;2062;50.694;7.246;2024-02-14T05:14:48;3.40;;;0.90;;
4096;SDS011;2062;50.694;7.246;2024-02-14T05:17:16;5.03;;;1.27;;
4096;SDS011;2062;50.694;7.246;2024-02-14T05:19:43;4.30;;;0.80;;
4096;SDS011;2062;50.694;7.246;2024-02-14T05:22:10;4.70;;;1.10;;
4096;SDS011;2062;50.694;7.246;2024-02-14T05:24:36;4.68;;;0.85;;
4096;SDS011;2062;50.694;7.246;2024-02-14T05:27:03;6.15;;;1.00;;
4096;SDS011;2062;50.694;7.246;2024-02-14T05:29:31;2.85;;;0.63;;
4096;SDS011;2062;50.694;7.246;2024-02-14T05:31:58;3.70;;;1.20;;
4096;SDS011;2062;50.694;7.246;2024-02-14T05:34:26;3.90;;;0.70;;
4096;SDS011;2062;50.694;7.246;2024-02-14T05:36:53;3.70;;;0.90;;
4096;SDS011;2062;50.694;7.246;2024-02-14T05:39:19;4.00;;;1.13;;
4096;SDS011;2062;50.694;7.246;2024-02-14T05:41:47;4.03;;;1.23;;
4096;SDS011;2062;50.694;7.246;2024-02-14T05:44:15;3.77;;;1.03;;
4096;SDS011;2062;50.694;7.246;2024-02-14T05:46:41;3.47;;;0.80;;
4096;SDS011;2062;50.694;7.246;2024-02-14T05:49:08;3.85;;;0.90;;
4096;SDS011;2062;50.694;7.246;2024-02-14T05:51:36;3.65;;;0.90;;
4096;SDS011;2062;50.694;7.246;2024-02-14T05:54:03;4.50;;;1.15;;
4096;SDS011;2062;50.694;7.246;2024-02-14T05:56:30;4.17;;;1.20;;
4096;SDS011;2062;50.694;7.246;2024-02-14T05:58:57;4.82;;;1.35;;
4096;SDS011;2062;50.694;7.246;2024-02-14T06:01:23;5.05;;;1.00;;
4096;SDS011;2062;50.694;7.246;2024-02-14T06:03:50;7.43;;;1.00;;
4096;SDS011;2062;50.694;7.246;2024-02-14T06:06:17;3.55;;;0.93;;
4096;SDS011;2062;50.694;7.246;2024-02-14T06:08:45;4.67;;;1.10;;
4096;SDS011;2062;50.694;7.246;2024-02-14T06:11:12;4.63;;;1.08;;
4096;SDS011;2062;50.694;7.246;2024-02-14T06:13:39;3.85;;;0.82;;
4096;SDS011;2062;50.694;7.246;2024-02-14T06:16:06;3.20;;;0.80;;
4096;SDS011;2062;50.694;7.246;2024-02-14T06:18:33;3.28;;;0.90;;
4096;SDS011;2062;50.694;7.246;2024-02-14T06:21:00;4.37;;;1.13;;
4096;SDS011;2062;50.694;7.246;2024-02-14T06:23:27;3.72;;;1.10;;
4096;SDS011;2062;50.694;7.246;2024-02-14T06:25:55;3.75;;;0.80;;
4096;SDS011;2062;50.694;7.246;2024-02-14T06:28:22;3.70;;;0.90;;
4096;SDS011;2062;50.694;7.246;2024-02-14T06:30:49;3.22;;;0.90;;
4096;SDS011;2062;50.694;7.246;2024-02-14T06:33:15;3.83;;;0.90;;
4096;SDS011;2062;50.694;7.246;2024-02-14T06:35:42;3.22;;;0.90;;
4096;SDS011;2062;50.694;7.246;2024-02-14T06:38:10;3.33;;;0.70;;
4096;SDS011;2062;50.694;7.246;2024-02-14T06:40:36;3.92;;;0.85;;
4096;SDS011;2062;50.694;7.246;2024-02-14T06:43:05;4.80;;;1.10;;
4096;SDS011;2062;50.694;7.246;2024-02-14T06:45:32;3.83;;;0.70;;
4096;SDS011;2062;50.694;7.246;2024-02-14T06:47:58;3.28;;;0.73;;
4096;SDS011;2062;50.694;7.246;2024-02-14T06:50:25;3.15;;;0.70;;
4096;SDS011;2062;50.694;7.246;2024-02-14T06:52:53;3.10;;;0.73;;
4096;SDS011;2062;50.694;7.246;2024-02-14T06:55:23;4.88;;;0.80;;
4096;SDS011;2062;50.694;7.246;2024-02-14T06:57:49;4.13;;;0.80;;
4096;SDS011;2062;50.694;7.246;2024-02-14T07:00:18;5.90;;;0.80;;
4096;SDS011;2062;50.694;7.246;2024-02-14T07:02:45;3.63;;;0.70;;
4096;SDS011;2062;50.694;7.246;2024-02-14T07:05:13;3.53;;;0.70;;
4096;SDS011;2062;50.694;7.246;2024-02-14T07:07:40;2.90;;;0.73;;
4096;SDS011;2062;50.694;7.246;2024-02-14T07:10:07;3.00;;;0.67;;
4096;SDS011;2062;50.694;7.246;2024-02-14T07:12:34;4.07;;;0.88;;
4096;SDS011;2062;50.694;7.246;2024-02-14T07:15:02;3.20;;;0.70;;
4096;SDS011;2062;50.694;7.246;2024-02-14T07:17:30;3.95;;;0.80;;
4096;SDS011;2062;50.694;7.246;2024-02-14T07:19:57;3.78;;;0.90;;
4096;SDS011;2062;50.694;7.246;2024-02-14T07:22:24;3.10;;;0.70;;
4096;SDS011;2062;50.694;7.246;2024-02-14T07:24:51;2.40;;;0.50;;
4096;SDS011;2062;50.694;7.246;2024-02-14T07:27:18;3.25;;;0.63;;
4096;SDS011;2062;50.694;7.246;2024-02-14T07:29:46;2.50;;;0.50;;
4096;SDS011;2062;50.694;7.246;2024-02-14T07:32:12;2.67;;;0.47;;
4096;SDS011;2062;50.694;7.246;2024-02-14T07:34:41;4.30;;;0.67;;
4096;SDS011;2062;50.694;7.246;2024-02-14T07:37:08;3.75;;;0.70;;
4096;SDS011;2062;50.694;7.246;2024-02-14T07:39:35;4.47;;;0.70;;
4096;SDS011;2062;50.694;7.246;2024-02-14T07:42:02;2.85;;;0.52;;
4096;SDS011;2062;50.694;7.246;2024-02-14T07:44:29;4.47;;;0.60;;
4096;SDS011;2062;50.694;7.246;2024-02-14T07:46:57;2.33;;;0.50;;
4096;SDS011;2062;50.694;7.246;2024-02-14T07:49:23;3.45;;;0.55;;
4096;SDS011;2062;50.694;7.246;2024-02-14T07:51:51;2.70;;;0.63;;
4096;SDS011;2062;50.694;7.246;2024-02-14T07:54:18;3.30;;;0.70;;
4096;SDS011;2062;50.694;7.246;2024-02-14T07:56:45;2.90;;;0.63;;
4096;SDS011;2062;50.694;7.246;2024-02-14T07:59:12;4.20;;;0.77;;
4096;SDS011;2062;50.694;7.246;2024-02-14T08:01:38;2.70;;;0.60;;
4096;SDS011;2062;50.694;7.246;2024-02-14T08:04:05;2.13;;;0.40;;
4096;SDS011;2062;50.694;7.246;2024-02-14T08:06:32;2.55;;;0.50;;
4096;SDS011;2062;50.694;7.246;2024-02-14T08:09:00;2.78;;;0.70;;
4096;SDS011;2062;50.694;7.246;2024-02-14T08:11:31;2.87;;;0.50;;
4096;SDS011;2062;50.694;7.246;2024-02-14T08:13:58;3.10;;;0.70;;
4096;SDS011;2062;50.694;7.246;2024-02-14T08:16:24;2.90;;;0.60;;
4096;SDS011;2062;50.694;7.246;2024-02-14T08:18:51;2.85;;;0.60;;
4096;SDS011;2062;50.694;7.246;2024-02-14T08:21:23;2.70;;;0.73;;
4096;SDS011;2062;50.694;7.246;2024-02-14T08:23:50;2.50;;;0.40;;
4096;SDS011;2062;50.694;7.246;2024-02-14T08:26:18;4.20;;;0.65;;
4096;SDS011;2062;50.694;7.246;2024-02-14T08:28:45;3.28;;;0.70;;
4096;SDS011;2062;50.694;7.246;2024-02-14T08:31:12;3.60;;;0.57;;
4096;SDS011;2062;50.694;7.246;2024-02-14T08:33:39;3.50;;;0.63;;
4096;SDS011;2062;50.694;7.246;2024-02-14T08:36:06;2.70;;;0.50;;
4096;SDS011;2062;50.694;7.246;2024-02-14T08:38:33;4.20;;;0.60;;
4096;SDS011;2062;50.694;7.246;2024-02-14T08:41:00;3.22;;;0.70;;
4096;SDS011;2062;50.694;7.246;2024-02-14T08:43:29;3.80;;;0.70;;
4096;SDS011;2062;50.694;7.246;2024-02-14T08:45:55;3.60;;;0.50;;
4096;SDS011;2062;50.694;7.246;2024-02-14T08:48:22;2.80;;;0.67;;
4096;SDS011;2062;50.694;7.246;2024-02-14T08:50:53;3.38;;;0.50;;
4096;SDS011;2062;50.694;7.246;2024-02-14T08:53:19;2.67;;;0.55;;
4096;SDS011;2062;50.694;7.246;2024-02-14T08:55:47;2.45;;;0.50;;
4096;SDS011;2062;50.694;7.246;2024-02-14T08:58:13;2.65;;;0.60;;
4096;SDS011;2062;50.694;7.246;2024-02-14T09:00:41;3.10;;;0.70;;
4096;SDS011;2062;50.694;7.246;2024-02-14T09:03:08;4.05;;;0.80;;
4096;SDS011;2062;50.694;7.246;2024-02-14T09:05:35;2.42;;;0.50;;
4096;SDS011;2062;50.694;7.246;2024-02-14T09:08:03;2.65;;;0.50;;
4096;SDS011;2062;50.694;7.246;2024-02-14T09:10:30;2.67;;;0.50;;
4096;SDS011;2062;50.694;7.246;2024-02-14T09:12:57;2.97;;;0.60;;
4096;SDS011;2062;50.694;7.246;2024-02-14T09:15:24;2.38;;;0.50;;
4096;SDS011;2062;50.694;7.246;2024-02-14T09:17:53;2.35;;;0.45;;
4096;SDS011;2062;50.694;7.246;2024-02-14T09:20:20;2.80;;;0.60;;
4096;SDS011;2062;50.694;7.246;2024-02-14T09:22:47;2.90;;;0.70;;
4096;SDS011;2062;50.694;7.246;2024-02-14T09:25:13;3.40;;;0.57;;
4096;SDS011;2062;50.694;7.246;2024-02-14T09:27:40;2.60;;;0.47;;
4096;SDS011;2062;50.694;7.246;2024-02-14T09:30:08;3.25;;;0.50;;
4096;SDS011;2062;50.694;7.246;2024-02-14T09:32:36;2.42;;;0.47;;
4096;SDS011;2062;50.694;7.246;2024-02-14T09:35:05;3.17;;;0.65;;
4096;SDS011;2062;50.694;7.246;2024-02-14T09:37:32;3.30;;;0.70;;
4096;SDS011;2062;50.694;7.246;2024-02-14T09:39:59;3.30;;;0.60;;
4096;SDS011;2062;50.694;7.246;2024-02-14T09:42:27;2.58;;;0.52;;
4096;SDS011;2062;50.694;7.246;2024-02-14T09:45:05;2.50;;;0.57;;
4096;SDS011;2062;50.694;7.246;2024-02-14T09:47:33;2.30;;;0.50;;
4096;SDS011;2062;50.694;7.246;2024-02-14T09:50:01;2.47;;;0.40;;
4096;SDS011;2062;50.694;7.246;2024-02-14T09:52:32;2.08;;;0.40;;
4096;SDS011;2062;50.694;7.246;2024-02-14T09:55:00;2.60;;;0.50;;
4096;SDS011;2062;50.694;7.246;2024-02-14T09:57:28;2.70;;;0.50;;
4096;SDS011;2062;50.694;7.246;2024-02-14T09:59:55;2.22;;;0.50;;
4096;SDS011;2062;50.694;7.246;2024-02-14T10:02:23;2.60;;;0.50;;
4096;SDS011;2062;50.694;7.246;2024-02-14T10:11:01;3.92;;;0.60;;
4096;SDS011;2062;50.694;7.246;2024-02-14T10:13:29;2.97;;;0.80;;
4096;SDS011;2062;50.694;7.246;2024-02-14T10:15:56;2.53;;;0.63;;
4096;SDS011;2062;50.694;7.246;2024-02-14T10:18:23;2.20;;;0.40;;
4096;SDS011;2062;50.694;7.246;2024-02-14T10:20:54;2.67;;;0.60;;
4096;SDS011;2062;50.694;7.246;2024-02-14T10:23:22;2.33;;;0.50;;
4096;SDS011;2062;50.694;7.246;2024-02-14T10:25:52;3.50;;;0.55;;
4096;SDS011;2062;50.694;7.246;2024-02-14T10:28:21;2.50;;;0.40;;
4096;SDS011;2062;50.694;7.246;2024-02-14T10:30:48;2.47;;;0.47;;
4096;SDS011;2062;50.694;7.246;2024-02-14T10:33:15;2.30;;;0.45;;
4096;SDS011;2062;50.694;7.246;2024-02-14T10:35:42;2.65;;;0.60;;
4096;SDS011;2062;50.694;7.246;2024-02-14T10:38:09;3.25;;;0.50;;
4096;SDS011;2062;50.694;7.246;2024-02-14T10:40:38;2.30;;;0.40;;
4096;SDS011;2062;50.694;7.246;2024-02-14T10:43:06;3.05;;;0.50;;
4096;SDS011;2062;50.694;7.246;2024-02-14T10:45:34;2.88;;;0.50;;
4096;SDS011;2062;50.694;7.246;2024-02-14T10:48:01;2.58;;;0.50;;
4096;SDS011;2062;50.694;7.246;2024-02-14T10:50:32;2.95;;;0.57;;
4096;SDS011;2062;50.694;7.246;2024-02-14T10:53:02;1.93;;;0.37;;
4096;SDS011;2062;50.694;7.246;2024-02-14T10:55:31;1.98;;;0.40;;
4096;SDS011;2062;50.694;7.246;2024-02-14T10:57:59;1.55;;;0.32;;
4096;SDS011;2062;50.694;7.246;2024-02-14T11:00:28;2.90;;;0.47;;
4096;SDS011;2062;50.694;7.246;2024-02-14T11:02:57;2.08;;;0.40;;
4096;SDS011;2062;50.694;7.246;2024-02-14T11:05:25;2.97;;;0.40;;
4096;SDS011;2062;50.694;7.246;2024-02-14T11:07:52;3.20;;;0.60;;
4096;SDS011;2062;50.694;7.246;2024-02-14T11:10:19;4.05;;;0.50;;
4096;SDS011;2062;50.694;7.246;2024-02-14T11:12:47;2.40;;;0.50;;
4096;SDS011;2062;50.694;7.246;2024-02-14T11:15:16;2.72;;;0.40;;
4096;SDS011;2062;50.694;7.246;2024-02-14T11:17:45;2.43;;;0.50;;
4096;SDS011;2062;50.694;7.246;2024-02-14T11:20:15;2.58;;;0.30;;
4096;SDS011;2062;50.694;7.246;2024-02-14T11:22:53;2.60;;;0.40;;
4096;SDS011;2062;50.694;7.246;2024-02-14T11:25:28;2.35;;;0.50;;
4096;SDS011;2062;50.694;7.246;2024-02-14T11:27:59;2.55;;;0.40;;
4096;SDS011;2062;50.694;7.246;2024-02-14T11:30:30;3.27;;;0.50;;
4096;SDS011;2062;50.694;7.246;2024-02-14T11:33:17;2.70;;;0.40;;
4096;SDS011;2062;50.694;7.246;2024-02-14T11:35:45;3.67;;;0.63;;
4096;SDS011;2062;50.694;7.246;2024-02-14T11:38:15;2.28;;;0.40;;
4096;SDS011;2062;50.694;7.246;2024-02-14T11:40:42;2.67;;;0.60;;
4096;SDS011;2062;50.694;7.246;2024-02-14T11:43:12;3.60;;;0.50;;
4096;SDS011;2062;50.694;7.246;2024-02-14T11:45:40;3.35;;;0.50;;
4096;SDS011;2062;50.694;7.246;2024-02-14T11:48:08;2.25;;;0.60;;
4096;SDS011;2062;50.694;7.246;2024-02-14T11:50:37;1.90;;;0.38;;
4096;SDS011;2062;50.694;7.246;2024-02-14T11:53:05;1.90;;;0.45;;
4096;SDS011;2062;50.694;7.246;2024-02-14T11:55:34;3.00;;;0.50;;
4096;SDS011;2062;50.694;7.246;2024-02-14T11:58:03;4.38;;;0.70;;
4096;SDS011;2062;50.694;7.246;2024-02-14T12:00:33;3.65;;;0.50;;
4096;SDS011;2062;50.694;7.246;2024-02-14T12:03:00;3.15;;;0.60;;
4096;SDS011;2062;50.694;7.246;2024-02-14T12:05:28;3.03;;;0.50;;
4096;SDS011;2062;50.694;7.246;2024-02-14T12:07:56;3.07;;;0.50;;
4096;SDS011;2062;50.694;7.246;2024-02-14T12:10:23;2.95;;;0.43;;
4096;SDS011;2062;50.694;7.246;2024-02-14T12:12:49;2.88;;;0.50;;
4096;SDS011;2062;50.694;7.246;2024-02-14T12:15:16;2.28;;;0.50;;
4096;SDS011;2062;50.694;7.246;2024-02-14T12:17:44;2.53;;;0.50;;
4096;SDS011;2062;50.694;7.246;2024-02-14T12:20:13;2.63;;;0.40;;
4096;SDS011;2062;50.694;7.246;2024-02-14T12:22:41;2.90;;;0.40;;
4096;SDS011;2062;50.694;7.246;2024-02-14T12:25:09;4.22;;;0.60;;
4096;SDS011;2062;50.694;7.246;2024-02-14T12:27:36;2.17;;;0.40;;
4096;SDS011;2062;50.694;7.246;2024-02-14T12:30:04;2.25;;;0.47;;
4096;SDS011;2062;50.694;7.246;2024-02-14T12:32:32;3.83;;;0.50;;
4096;SDS011;2062;50.694;7.246;2024-02-14T12:34:59;2.63;;;0.50;;
4096;SDS011;2062;50.694;7.246;2024-02-14T12:37:26;1.85;;;0.32;;
4096;SDS011;2062;50.694;7.246;2024-02-14T12:39:53;2.50;;;0.52;;
4096;SDS011;2062;50.694;7.246;2024-02-14T12:42:21;1.80;;;0.40;;
4096;SDS011;2062;50.694;7.246;2024-02-14T12:44:50;2.07;;;0.40;;
4096;SDS011;2062;50.694;7.246;2024-02-14T12:47:18;2.13;;;0.40;;
4096;SDS011;2062;50.694;7.246;2024-02-14T12:49:46;3.08;;;0.60;;
4096;SDS011;2062;50.694;7.246;2024-02-14T12:52:13;2.38;;;0.63;;
4096;SDS011;2062;50.694;7.246;2024-02-14T12:54:40;3.83;;;0.57;;
4096;SDS011;2062;50.694;7.246;2024-02-14T12:57:06;2.53;;;0.50;;
4096;SDS011;2062;50.694;7.246;2024-02-14T12:59:35;2.35;;;0.40;;
4096;SDS011;2062;50.694;7.246;2024-02-14T13:02:02;1.67;;;0.30;;
4096;SDS011;2062;50.694;7.246;2024-02-14T13:04:31;3.15;;;0.60;;
4096;SDS011;2062;50.694;7.246;2024-02-14T13:06:58;7.85;;;2.42;;
4096;SDS011;2062;50.694;7.246;2024-02-14T13:09:25;6.03;;;1.47;;
4096;SDS011;2062;50.694;7.246;2024-02-14T13:11:53;4.68;;;1.20;;
4096;SDS011;2062;50.694;7.246;2024-02-14T13:14:19;3.10;;;1.00;;
4096;SDS011;2062;50.694;7.246;2024-02-14T13:16:48;2.70;;;0.50;;
4096;SDS011;2062;50.694;7.246;2024-02-14T13:19:14;4.43;;;1.30;;
4096;SDS011;2062;50.694;7.246;2024-02-14T13:21:41;3.40;;;0.80;;
4096;SDS011;2062;50.694;7.246;2024-02-14T13:24:10;3.55;;;0.60;;
4096;SDS011;2062;50.694;7.246;2024-02-14T13:26:38;3.03;;;0.70;;
4096;SDS011;2062;50.694;7.246;2024-02-14T13:29:05;2.08;;;0.50;;
4096;SDS011;2062;50.694;7.246;2024-02-14T13:31:32;2.50;;;0.60;;
4096;SDS011;2062;50.694;7.246;2024-02-14T13:34:00;2.50;;;0.60;;
4096;SDS011;2062;50.694;7.246;2024-02-14T13:36:28;2.13;;;0.40;;
4096;SDS011;2062;50.694;7.246;2024-02-14T13:38:55;2.67;;;0.60;;
4096;SDS011;2062;50.694;7.246;2024-02-14T13:41:22;1.88;;;0.47;;
4096;SDS011;2062;50.694;7.246;2024-02-14T13:43:49;2.22;;;0.50;;
4096;SDS011;2062;50.694;7.246;2024-02-14T13:46:16;2.50;;;0.60;;
4096;SDS011;2062;50.694;7.246;2024-02-14T13:48:43;2.17;;;0.50;;
4096;SDS011;2062;50.694;7.246;2024-02-14T13:51:11;1.90;;;0.40;;
4096;SDS011;2062;50.694;7.246;2024-02-14T13:53:38;2.20;;;0.40;;
4096;SDS011;2062;50.694;7.246;2024-02-14T13:56:05;2.10;;;0.50;;
4096;SDS011;2062;50.694;7.246;2024-02-14T13:58:32;2.43;;;0.50;;
4096;SDS011;2062;50.694;7.246;2024-02-14T14:00:59;2.30;;;0.50;;
4096;SDS011;2062;50.694;7.246;2024-02-14T14:03:26;2.60;;;0.70;;
4096;SDS011;2062;50.694;7.246;2024-02-14T14:05:54;2.50;;;0.60;;
4096;SDS011;2062;50.694;7.246;2024-02-14T14:08:23;2.33;;;0.52;;
4096;SDS011;2062;50.694;7.246;2024-02-14T14:10:49;2.77;;;0.67;;
4096;SDS011;2062;50.694;7.246;2024-02-14T14:13:16;2.20;;;0.40;;
4096;SDS011;2062;50.694;7.246;2024-02-14T14:15:43;2.78;;;0.65;;
4096;SDS011;2062;50.694;7.246;2024-02-14T14:18:10;2.25;;;0.40;;
4096;SDS011;2062;50.694;7.246;2024-02-14T14:20:36;2.47;;;0.60;;
4096;SDS011;2062;50.694;7.246;2024-02-14T14:23:03;2.00;;;0.40;;
4096;SDS011;2062;50.694;7.246;2024-02-14T14:25:32;2.00;;;0.40;;
4096;SDS011;2062;50.694;7.246;2024-02-14T14:27:59;1.98;;;0.40;;
4096;SDS011;2062;50.694;7.246;2024-02-14T14:30:27;2.05;;;0.40;;
4096;SDS011;2062;50.694;7.246;2024-02-14T14:32:54;2.42;;;0.50;;
4096;SDS011;2062;50.694;7.246;2024-02-14T14:35:21;2.30;;;0.50;;
4096;SDS011;2062;50.694;7.246;2024-02-14T14:37:47;2.47;;;0.57;;
4096;SDS011;2062;50.694;7.246;2024-02-14T14:40:14;2.50;;;0.50;;
4096;SDS011;2062;50.694;7.246;2024-02-14T14:42:42;2.80;;;0.60;;
4096;SDS011;2062;50.694;7.246;2024-02-14T14:45:09;2.63;;;0.60;;
4096;SDS011;2062;50.694;7.246;2024-02-14T14:47:36;2.93;;;0.50;;
4096;SDS011;2062;50.694;7.246;2024-02-14T14:50:03;2.90;;;0.68;;
4096;SDS011;2062;50.694;7.246;2024-02-14T14:52:30;2.17;;;0.50;;
4096;SDS011;2062;50.694;7.246;2024-02-14T14:54:57;2.15;;;0.50;;
4096;SDS011;2062;50.694;7.246;2024-02-14T14:57:24;2.25;;;0.50;;
4096;SDS011;2062;50.694;7.246;2024-02-14T14:59:54;2.47;;;0.50;;
4096;SDS011;2062;50.694;7.246;2024-02-14T15:02:20;2.53;;;0.50;;
4096;SDS011;2062;50.694;7.246;2024-02-14T15:04:48;2.25;;;0.60;;
4096;SDS011;2062;50.694;7.246;2024-02-14T15:07:15;2.33;;;0.50;;
4096;SDS011;2062;50.694;7.246;2024-02-14T15:09:45;2.50;;;0.50;;
4096;SDS011;2062;50.694;7.246;2024-02-14T15:12:11;2.20;;;0.50;;
4096;SDS011;2062;50.694;7.246;2024-02-14T15:14:38;1.98;;;0.40;;
4096;SDS011;2062;50.694;7.246;2024-02-14T15:17:06;2.10;;;0.47;;
4096;SDS011;2062;50.694;7.246;2024-02-14T15:19:33;2.33;;;0.50;;
4096;SDS011;2062;50.694;7.246;2024-02-14T15:22:00;2.53;;;0.50;;